INFORMACIÓN METAR y TAF
METAR FOR LIML
ADDS - METARS form results

(0621 UTC 28 February 2021)
Data provider http://aviationweather.gov/metar/data/
 
METAR text: LIML 280550Z 07005KT CAVOK 07/01 Q1032 NOSIG
Conditions at: LIML (MILANO/LINATE , IT) observed 0550 UTC 28 February 2021
Temperature: 7.0°C (45°F)
Dewpoint: 1.0°C (34°F) [RH = 66%]
Pressure (altimeter): 30.47 inches Hg (1032.0 mb)
Winds: from the ENE (70 degrees) at 6 MPH (5 knots; 2.6 m/s)
Visibility: 6 or more miles (10+ km)
Ceiling: ceiling and visibility are OK
Clouds: unknown
Weather: no significant weather observed at this time

Forecast for: LIML (MILANO/LINATE , IT)
Text: TAF LIML 280500Z 2806/0106 VRB05KT CAVOK
Forecast period: 0600 UTC 28 February 2021 to 0600 UTC 01 March 2021
Forecast type: FROM: standard forecast or significant change
Winds: variable direction winds at 6 MPH (5 knots; 2.6 m/s)
Visibility: 6 or more miles (10+ km)
Ceiling: unknown
Clouds: missing
Weather: NSW  (no significant weather)
Text: TEMPO 0100/0106 4000 BR
Forecast period: 0000 to 0600 UTC 01 March 2021
Forecast type: TEMPORARY: The following changes expected for less than half the time period
Visibility: 2.49 miles (4.01 km)
Ceiling: unknown
Clouds: missing
Weather: BR  (mist)

 MAPA DE AEROPUERTO

 INFORMACIÓN DE PISTA